createdAt,value
2019-05-12T00:02:03.431Z,8.67
2019-05-12T00:04:35.412Z,8.61
2019-05-12T00:07:08.765Z,8.70
2019-05-12T00:09:40.865Z,8.74
2019-05-12T00:12:12.910Z,8.69
2019-05-12T00:14:44.850Z,8.67
2019-05-12T00:17:18.797Z,8.55
2019-05-12T00:19:50.810Z,8.60
2019-05-12T00:22:24.766Z,8.73
2019-05-12T00:24:58.382Z,8.68
2019-05-12T00:27:30.460Z,8.69
2019-05-12T00:30:02.998Z,8.55
2019-05-12T00:32:34.970Z,8.55
2019-05-12T00:35:07.887Z,8.55
2019-05-12T00:37:40.022Z,8.49
2019-05-12T00:40:11.990Z,8.45
2019-05-12T00:42:43.984Z,8.44
2019-05-12T00:45:18.010Z,8.38
2019-05-12T00:47:49.902Z,8.43
2019-05-12T00:50:21.855Z,8.41
2019-05-12T00:52:53.846Z,8.34
2019-05-12T00:55:25.833Z,8.37
2019-05-12T00:57:58.368Z,8.35
2019-05-12T01:00:30.487Z,8.40
2019-05-12T01:03:02.478Z,8.42
2019-05-12T01:05:34.456Z,8.45
2019-05-12T01:08:09.240Z,8.44
2019-05-12T01:10:40.373Z,8.26
2019-05-12T01:13:12.373Z,8.26
2019-05-12T01:15:44.369Z,8.21
2019-05-12T01:18:18.102Z,8.26
2019-05-12T01:20:50.249Z,8.21
2019-05-12T01:23:23.525Z,8.24
2019-05-12T01:25:58.300Z,8.23
2019-05-12T01:28:29.604Z,8.20
2019-05-12T01:31:03.503Z,8.33
2019-05-12T01:33:35.466Z,8.25
2019-05-12T01:36:07.931Z,8.30
2019-05-12T01:38:40.035Z,8.30
2019-05-12T01:41:12.051Z,8.40
2019-05-12T01:43:43.997Z,8.29
2019-05-12T01:46:18.080Z,8.25
2019-05-12T01:48:49.850Z,8.28
2019-05-12T01:51:21.863Z,8.21
2019-05-12T01:54:06.947Z,8.24
2019-05-12T01:56:28.758Z,8.27
2019-05-12T01:59:00.937Z,8.28
2019-05-12T02:01:32.943Z,8.24
2019-05-12T02:04:04.901Z,8.22
2019-05-12T02:06:38.703Z,8.27
2019-05-12T02:09:13.506Z,8.19
2019-05-12T02:11:45.485Z,8.13
2019-05-12T02:14:18.296Z,8.04
2019-05-12T02:16:50.451Z,7.99
2019-05-12T02:19:22.429Z,8.03
2019-05-12T02:21:54.433Z,8.11
2019-05-12T02:24:29.746Z,8.12
2019-05-12T02:27:00.283Z,8.20
2019-05-12T02:29:32.264Z,8.11
2019-05-12T02:32:04.265Z,8.11
2019-05-12T02:34:36.198Z,8.12
2019-05-12T02:37:08.201Z,8.17
2019-05-12T02:39:40.250Z,8.21
2019-05-12T02:42:15.382Z,8.23
2019-05-12T02:44:46.097Z,8.13
2019-05-12T02:47:18.115Z,8.12
2019-05-12T02:49:50.084Z,8.05
2019-05-12T02:52:24.960Z,8.03
2019-05-12T02:55:00.527Z,8.09
2019-05-12T02:57:30.203Z,8.19
2019-05-12T03:00:05.070Z,8.21
2019-05-12T03:02:37.239Z,8.23
2019-05-12T03:05:09.295Z,8.17
2019-05-12T03:07:44.740Z,8.24
2019-05-12T03:10:16.424Z,8.23
2019-05-12T03:12:48.431Z,8.30
2019-05-12T03:15:20.396Z,8.32
2019-05-12T03:17:54.599Z,8.31
2019-05-12T03:20:26.259Z,8.33
2019-05-12T03:22:58.300Z,8.43
2019-05-12T03:25:30.380Z,8.43
2019-05-12T03:28:04.912Z,8.45
2019-05-12T03:30:39.975Z,8.47
2019-05-12T03:33:13.840Z,8.47
2019-05-12T03:35:52.260Z,8.46
2019-05-12T03:38:19.334Z,8.49
2019-05-12T03:40:51.302Z,8.52
2019-05-12T03:43:24.386Z,8.55
2019-05-12T03:45:56.547Z,8.49
2019-05-12T03:48:28.525Z,8.50
2019-05-12T03:51:00.497Z,8.49
2019-05-12T03:53:35.295Z,8.48
2019-05-12T03:56:06.417Z,8.53
2019-05-12T03:58:38.362Z,8.55
2019-05-12T04:01:10.343Z,8.52
2019-05-12T04:03:45.047Z,8.52
2019-05-12T04:06:16.188Z,8.55
2019-05-12T04:08:48.179Z,8.61
2019-05-12T04:11:20.160Z,8.54
2019-05-12T04:13:54.826Z,8.59
2019-05-12T04:16:25.992Z,8.63
2019-05-12T04:18:57.957Z,8.57
2019-05-12T04:21:29.942Z,8.60
2019-05-12T04:24:05.056Z,8.63
2019-05-12T04:26:36.687Z,8.65
2019-05-12T04:29:09.017Z,8.64
2019-05-12T04:31:44.088Z,8.66
2019-05-12T04:34:18.955Z,8.66
2019-05-12T04:36:49.057Z,8.63
2019-05-12T04:39:21.000Z,8.61
2019-05-12T04:41:55.171Z,8.64
2019-05-12T04:44:26.826Z,8.62
2019-05-12T04:46:58.845Z,8.59
2019-05-12T04:49:30.817Z,8.67
2019-05-12T04:52:05.253Z,8.61
2019-05-12T04:54:36.722Z,8.57
2019-05-12T04:57:08.677Z,8.57
2019-05-12T04:59:40.614Z,8.57
2019-05-12T05:02:15.295Z,8.55
2019-05-12T05:04:46.514Z,8.55
2019-05-12T05:07:18.475Z,8.56
2019-05-12T05:09:50.449Z,8.61
2019-05-12T05:12:23.960Z,8.64
2019-05-12T05:14:56.120Z,8.66
2019-05-12T05:17:28.109Z,8.66
2019-05-12T05:20:00.052Z,8.72
2019-05-12T05:22:33.314Z,8.79
2019-05-12T05:25:05.523Z,8.88
2019-05-12T05:27:37.573Z,8.94
2019-05-12T05:30:09.529Z,9.07
2019-05-12T05:32:41.524Z,9.18
2019-05-12T05:35:13.837Z,9.23
2019-05-12T05:37:45.948Z,9.34
2019-05-12T05:40:19.821Z,9.45
2019-05-12T05:42:54.148Z,9.50
2019-05-12T05:45:26.508Z,9.61
2019-05-12T05:47:59.589Z,9.82
2019-05-12T05:50:34.302Z,9.84
2019-05-12T05:53:09.182Z,10.11
2019-05-12T05:55:40.362Z,10.74
2019-05-12T05:58:12.330Z,11.14
2019-05-12T06:00:44.304Z,11.56
2019-05-12T06:03:23.123Z,11.84
2019-05-12T06:05:50.149Z,12.22
2019-05-12T06:08:23.775Z,12.36
2019-05-12T06:10:56.003Z,12.56
2019-05-12T06:13:31.845Z,12.50
2019-05-12T06:16:04.226Z,13.21
2019-05-12T06:18:35.728Z,13.42
2019-05-12T06:21:07.769Z,13.33
2019-05-12T06:23:39.740Z,13.17
2019-05-12T06:26:14.069Z,13.07
2019-05-12T06:28:45.621Z,12.91
2019-05-12T06:31:19.001Z,12.86
2019-05-12T06:33:53.575Z,12.45
2019-05-12T06:36:27.346Z,12.23
2019-05-12T06:38:59.261Z,11.85
2019-05-12T06:41:33.581Z,11.61
2019-05-12T06:44:08.705Z,11.35
2019-05-12T06:46:39.024Z,11.17
2019-05-12T06:49:13.611Z,10.92
2019-05-12T06:51:44.892Z,10.76
2019-05-12T06:54:16.879Z,10.49
2019-05-12T06:56:50.113Z,10.40
2019-05-12T06:59:23.750Z,10.46
2019-05-12T07:02:00.326Z,10.56
2019-05-12T07:04:29.957Z,10.52
2019-05-12T07:07:03.669Z,10.35
2019-05-12T07:09:50.082Z,10.35
2019-05-12T07:12:09.621Z,10.62
2019-05-12T07:14:43.780Z,10.80
2019-05-12T07:17:25.403Z,10.91
2019-05-12T07:19:58.415Z,11.41
2019-05-12T07:22:31.209Z,11.83
2019-05-12T07:25:05.496Z,12.18
2019-05-12T07:27:39.766Z,12.62
2019-05-12T07:30:13.704Z,12.94
2019-05-12T07:32:45.892Z,13.45
2019-05-12T07:35:17.920Z,14.22
2019-05-12T07:37:50.013Z,14.92
2019-05-12T07:40:25.771Z,15.45
2019-05-12T07:42:56.588Z,15.37
2019-05-12T07:45:28.582Z,15.02
2019-05-12T07:48:07.743Z,15.14
2019-05-12T07:50:34.828Z,15.06
2019-05-12T07:53:06.841Z,15.76
2019-05-12T07:55:39.766Z,15.64
2019-05-12T07:58:15.565Z,16.29
2019-05-12T08:00:46.599Z,16.02
2019-05-12T08:03:21.215Z,16.08
2019-05-12T08:05:57.434Z,15.98
2019-05-12T08:08:26.418Z,16.06
2019-05-12T08:10:58.439Z,16.26
2019-05-12T08:13:31.327Z,16.62
2019-05-12T08:16:04.333Z,16.77
2019-05-12T08:18:40.997Z,16.49
2019-05-12T08:21:10.210Z,16.53
2019-05-12T08:23:44.500Z,16.27
2019-05-12T08:26:18.610Z,16.07
2019-05-12T08:28:49.978Z,15.98
2019-05-12T08:31:25.867Z,16.30
2019-05-12T08:33:55.872Z,16.31
2019-05-12T08:36:27.868Z,16.26
2019-05-12T08:39:03.022Z,16.50
2019-05-12T08:41:34.242Z,16.72
2019-05-12T08:44:06.345Z,16.67
2019-05-12T08:46:43.226Z,16.27
2019-05-12T08:49:14.308Z,16.47
2019-05-12T08:51:49.734Z,16.36
2019-05-12T08:54:20.088Z,16.41
2019-05-12T08:56:59.318Z,16.30
2019-05-12T08:59:27.407Z,16.25
2019-05-12T09:02:00.461Z,15.92
2019-05-12T09:04:33.936Z,15.40
2019-05-12T09:07:05.959Z,14.64
2019-05-12T09:09:37.983Z,14.41
2019-05-12T09:12:09.984Z,13.98
2019-05-12T09:14:46.265Z,14.11
2019-05-12T09:17:15.968Z,14.37
2019-05-12T09:19:47.978Z,14.79
2019-05-12T09:22:21.000Z,15.05
2019-05-12T09:24:53.476Z,15.11
2019-05-12T09:27:25.452Z,14.96
2019-05-12T09:29:59.056Z,14.45
2019-05-12T09:32:33.374Z,14.48
2019-05-12T09:35:05.459Z,14.56
2019-05-12T09:37:40.363Z,14.79
2019-05-12T09:40:11.347Z,15.07
2019-05-12T09:42:44.095Z,14.89
2019-05-12T09:45:16.408Z,14.73
2019-05-12T09:47:48.432Z,14.48
2019-05-12T09:50:20.663Z,14.22
2019-05-12T09:52:55.424Z,14.33
2019-05-12T09:55:26.612Z,14.47
2019-05-12T09:57:58.597Z,14.47
2019-05-12T10:00:35.902Z,14.85
2019-05-12T10:03:08.254Z,14.99
2019-05-12T10:05:41.105Z,14.77
2019-05-12T10:08:13.908Z,14.73
2019-05-12T10:10:47.038Z,14.32
2019-05-12T10:13:20.216Z,14.45
2019-05-12T10:15:53.581Z,14.57
2019-05-12T10:18:25.754Z,14.85
2019-05-12T10:20:57.707Z,15.03
2019-05-12T10:23:29.692Z,15.15
2019-05-12T10:26:09.488Z,15.13
2019-05-12T10:28:35.613Z,15.07
2019-05-12T10:31:07.610Z,15.17
2019-05-12T10:33:39.620Z,15.19
2019-05-12T10:36:11.591Z,15.06
2019-05-12T10:38:43.573Z,15.15
2019-05-12T10:41:15.573Z,15.11
2019-05-12T10:43:48.353Z,15.20
2019-05-12T10:46:26.938Z,15.00
2019-05-12T10:48:55.352Z,15.09
2019-05-12T10:51:27.353Z,14.99
2019-05-12T10:54:09.209Z,15.00
2019-05-12T10:56:34.780Z,14.67
2019-05-12T10:59:06.976Z,14.93
2019-05-12T11:01:45.660Z,14.83
2019-05-12T11:04:14.325Z,14.79
2019-05-12T11:06:48.462Z,14.94
2019-05-12T11:09:21.373Z,14.96
2019-05-12T11:11:54.263Z,15.05
2019-05-12T11:14:30.284Z,14.83
2019-05-12T11:17:07.386Z,14.82
2019-05-12T11:19:40.606Z,15.05
2019-05-12T11:22:09.822Z,15.19
2019-05-12T11:24:44.228Z,15.34
2019-05-12T11:27:15.831Z,15.52
2019-05-12T11:29:49.558Z,15.33
2019-05-12T11:32:23.237Z,15.44
2019-05-12T11:34:55.452Z,15.27
2019-05-12T11:37:29.115Z,15.24
2019-05-12T11:40:01.223Z,14.83
2019-05-12T11:42:33.679Z,14.83
2019-05-12T11:45:05.861Z,15.01
2019-05-12T11:47:37.945Z,14.87
2019-05-12T11:50:10.281Z,15.10
2019-05-12T11:52:46.073Z,15.15
2019-05-12T11:55:16.226Z,15.55
2019-05-12T11:57:48.182Z,15.55
2019-05-12T12:00:24.139Z,15.45
2019-05-12T12:02:56.255Z,15.44
2019-05-12T12:05:28.246Z,15.44
2019-05-12T12:08:00.280Z,15.36
2019-05-12T12:10:35.513Z,15.09
2019-05-12T12:13:06.181Z,14.87
2019-05-12T12:15:38.181Z,15.12
2019-05-12T12:18:15.186Z,15.12
2019-05-12T12:20:44.421Z,15.25
2019-05-12T12:23:16.420Z,15.50
2019-05-12T12:25:50.099Z,15.84
2019-05-12T12:28:24.167Z,15.57
2019-05-12T12:31:00.290Z,15.61
2019-05-12T12:33:30.926Z,15.61
2019-05-12T12:36:04.247Z,15.26
2019-05-12T12:38:36.306Z,15.02
2019-05-12T12:41:08.345Z,14.91
2019-05-12T12:43:40.358Z,14.73
2019-05-12T12:46:25.361Z,14.75
2019-05-12T12:49:00.227Z,14.77
2019-05-12T12:51:31.310Z,14.80
2019-05-12T12:54:03.464Z,14.81
2019-05-12T12:56:35.431Z,14.85
2019-05-12T12:59:11.996Z,14.94
2019-05-12T13:01:41.357Z,15.16
2019-05-12T13:04:13.410Z,15.36
2019-05-12T13:06:45.376Z,15.37
2019-05-12T13:09:24.219Z,15.61
2019-05-12T13:11:53.579Z,15.58
2019-05-12T13:14:28.471Z,15.40
2019-05-12T13:16:59.257Z,15.41
2019-05-12T13:19:33.139Z,15.67
2019-05-12T13:22:09.128Z,15.82
2019-05-12T13:24:39.002Z,15.83
2019-05-12T13:27:11.028Z,15.69
2019-05-12T13:29:43.056Z,15.55
2019-05-12T13:32:15.116Z,15.65
2019-05-12T13:34:47.119Z,15.67
2019-05-12T13:37:19.540Z,15.74
2019-05-12T13:39:58.531Z,15.47
2019-05-12T13:42:25.530Z,15.11
2019-05-12T13:44:57.525Z,14.95
2019-05-12T13:47:35.496Z,14.61
2019-05-12T13:50:04.164Z,14.48
2019-05-12T13:52:36.243Z,14.47
2019-05-12T13:55:08.269Z,14.47
2019-05-12T13:57:46.724Z,14.64
2019-05-12T14:00:14.452Z,14.71
2019-05-12T14:02:48.921Z,14.85
2019-05-12T14:05:20.342Z,14.90
2019-05-12T14:07:55.675Z,14.95
2019-05-12T14:10:26.276Z,14.78
2019-05-12T14:12:58.304Z,14.54
2019-05-12T14:15:30.325Z,14.47
2019-05-12T14:18:03.427Z,14.53
2019-05-12T14:20:35.592Z,14.49
2019-05-12T14:23:07.630Z,14.41
2019-05-12T14:25:39.592Z,14.74
2019-05-12T14:28:15.791Z,14.93
2019-05-12T14:30:49.709Z,15.09
2019-05-12T14:33:19.477Z,15.24
2019-05-12T14:35:53.768Z,15.17
2019-05-12T14:38:29.599Z,15.18
2019-05-12T14:41:01.487Z,15.22
2019-05-12T14:43:34.105Z,15.11
2019-05-12T14:46:10.379Z,15.08
2019-05-12T14:48:45.329Z,14.77
2019-05-12T14:51:14.265Z,14.79
2019-05-12T14:53:48.091Z,14.77
2019-05-12T14:56:20.123Z,14.79
2019-05-12T14:58:58.007Z,14.67
2019-05-12T15:01:38.440Z,14.71
2019-05-12T15:03:59.951Z,14.83
2019-05-12T15:06:33.989Z,14.76
2019-05-12T15:09:11.510Z,14.85
2019-05-12T15:11:40.620Z,14.84
2019-05-12T15:14:13.743Z,14.90
2019-05-12T15:16:45.870Z,14.91
2019-05-12T15:19:20.780Z,14.96
2019-05-12T15:21:53.720Z,14.87
2019-05-12T15:24:25.780Z,14.85
2019-05-12T15:27:00.672Z,14.93
2019-05-12T15:29:33.736Z,14.93
2019-05-12T15:32:05.808Z,14.82
2019-05-12T15:34:37.776Z,14.81
2019-05-12T15:37:09.787Z,14.93
2019-05-12T15:39:43.916Z,14.94
2019-05-12T15:42:15.725Z,14.90
2019-05-12T15:44:47.721Z,14.92
2019-05-12T15:47:19.786Z,14.71
2019-05-12T15:49:53.169Z,14.73
2019-05-12T15:52:29.861Z,15.02
2019-05-12T15:54:59.231Z,14.92
2019-05-12T15:57:33.362Z,15.04
2019-05-12T16:00:05.250Z,14.83
2019-05-12T16:02:37.285Z,14.91
2019-05-12T16:05:09.445Z,14.97
2019-05-12T16:07:43.631Z,14.85
2019-05-12T16:10:15.383Z,14.99
2019-05-12T16:12:47.404Z,15.05
2019-05-12T16:15:19.531Z,15.05
2019-05-12T16:17:53.864Z,15.19
2019-05-12T16:20:25.501Z,15.12
2019-05-12T16:22:57.722Z,15.06
2019-05-12T16:25:31.035Z,14.84
2019-05-12T16:28:07.710Z,14.80
2019-05-12T16:30:37.283Z,14.73
2019-05-12T16:33:14.386Z,14.66
2019-05-12T16:35:44.123Z,14.69
2019-05-12T16:38:19.941Z,14.87
2019-05-12T16:40:50.334Z,15.00
2019-05-12T16:43:23.808Z,14.78
2019-05-12T16:45:55.937Z,14.92
2019-05-12T16:48:32.770Z,14.85
2019-05-12T16:51:03.321Z,14.84
2019-05-12T16:53:35.552Z,14.83
2019-05-12T16:56:07.599Z,14.87
2019-05-12T16:58:39.632Z,14.85
2019-05-12T17:01:14.225Z,14.73
2019-05-12T17:03:45.542Z,14.76
2019-05-12T17:06:20.412Z,14.64
2019-05-12T17:08:51.519Z,14.70
2019-05-12T17:11:30.017Z,14.70
2019-05-12T17:14:04.025Z,14.67
2019-05-12T17:16:33.697Z,14.62
2019-05-12T17:19:10.248Z,14.49
2019-05-12T17:21:39.265Z,14.54
2019-05-12T17:24:11.289Z,14.60
2019-05-12T17:26:44.007Z,14.71
2019-05-12T17:29:16.170Z,14.77
2019-05-12T17:31:48.172Z,14.53
2019-05-12T17:34:23.442Z,14.47
2019-05-12T17:36:56.128Z,14.49
2019-05-12T17:39:29.528Z,14.38
2019-05-12T17:42:02.181Z,14.40
2019-05-12T17:44:36.664Z,14.43
2019-05-12T17:47:14.053Z,14.35
2019-05-12T17:49:43.574Z,14.38
2019-05-12T17:52:18.633Z,14.38
2019-05-12T17:54:49.878Z,14.43
2019-05-12T17:57:23.506Z,14.43
2019-05-12T17:59:59.722Z,14.37
2019-05-12T18:02:29.689Z,14.33
2019-05-12T18:05:10.138Z,14.40
2019-05-12T18:07:35.729Z,14.23
2019-05-12T18:10:07.861Z,14.23
2019-05-12T18:12:44.825Z,14.25
2019-05-12T18:15:15.184Z,14.18
2019-05-12T18:17:49.877Z,14.01
2019-05-12T18:20:23.632Z,13.97
2019-05-12T18:22:55.346Z,13.95
2019-05-12T18:25:30.476Z,13.84
2019-05-12T18:28:03.592Z,13.67
2019-05-12T18:30:35.478Z,13.65
2019-05-12T18:33:09.489Z,13.61
2019-05-12T18:35:43.787Z,13.50
2019-05-12T18:38:21.592Z,13.39
2019-05-12T18:40:49.459Z,13.37
2019-05-12T18:43:21.454Z,13.27
2019-05-12T18:45:57.248Z,13.22
2019-05-12T18:48:27.498Z,13.17
2019-05-12T18:51:04.997Z,13.05
2019-05-12T18:53:34.959Z,13.00
2019-05-12T18:56:10.406Z,12.95
2019-05-12T18:58:41.061Z,12.86
2019-05-12T19:01:14.101Z,12.79
2019-05-12T19:03:50.758Z,12.73
2019-05-12T19:06:20.289Z,12.60
2019-05-12T19:08:53.866Z,12.54
2019-05-12T19:11:40.602Z,12.45
2019-05-12T19:14:00.083Z,12.35
2019-05-12T19:16:32.149Z,12.31
2019-05-12T19:19:04.499Z,12.21
2019-05-12T19:21:36.652Z,12.10
2019-05-12T19:24:14.171Z,12.03
2019-05-12T19:26:44.004Z,11.99
2019-05-12T19:29:16.614Z,11.86
2019-05-12T19:31:52.369Z,11.77
2019-05-12T19:34:25.874Z,11.75
2019-05-12T19:36:56.520Z,11.70
2019-05-12T19:39:28.573Z,11.64
2019-05-12T19:42:00.602Z,11.58
2019-05-12T19:44:34.250Z,11.52
2019-05-12T19:47:06.461Z,11.47
2019-05-12T19:49:47.704Z,11.38
2019-05-12T19:52:13.987Z,11.37
2019-05-12T19:54:46.289Z,11.34
2019-05-12T19:57:21.947Z,11.30
2019-05-12T19:59:53.389Z,11.23
2019-05-12T20:02:26.144Z,11.24
2019-05-12T20:04:58.260Z,11.22
2019-05-12T20:07:30.272Z,11.19
2019-05-12T20:10:04.689Z,11.11
2019-05-12T20:12:36.427Z,11.03
2019-05-12T20:15:08.731Z,10.88
2019-05-12T20:17:40.795Z,10.86
2019-05-12T20:20:13.839Z,10.87
2019-05-12T20:22:45.992Z,10.85
2019-05-12T20:25:18.064Z,10.76
2019-05-12T20:27:56.072Z,10.89
2019-05-12T20:30:24.321Z,10.80
2019-05-12T20:32:56.361Z,10.80
2019-05-12T20:35:28.407Z,10.81
2019-05-12T20:38:00.425Z,10.82
2019-05-12T20:40:37.830Z,10.78
2019-05-12T20:43:08.221Z,10.81
2019-05-12T20:45:41.089Z,10.81
2019-05-12T20:48:14.575Z,10.85
2019-05-12T20:50:46.725Z,10.82
2019-05-12T20:53:22.773Z,10.82
2019-05-12T20:55:54.750Z,10.77
2019-05-12T20:58:34.147Z,10.69
2019-05-12T21:01:02.897Z,10.69
2019-05-12T21:03:34.546Z,10.63
2019-05-12T21:06:06.624Z,10.65
2019-05-12T21:08:38.623Z,10.58
2019-05-12T21:11:10.708Z,10.54
2019-05-12T21:13:43.992Z,10.53
2019-05-12T21:16:20.155Z,10.53
2019-05-12T21:18:56.190Z,10.50
2019-05-12T21:21:25.153Z,10.46
2019-05-12T21:23:59.475Z,10.35
2019-05-12T21:26:34.786Z,10.38
2019-05-12T21:29:05.687Z,10.37
2019-05-12T21:31:37.699Z,10.35
2019-05-12T21:34:18.170Z,10.43
2019-05-12T21:36:44.390Z,10.42
2019-05-12T21:39:16.554Z,10.36
2019-05-12T21:41:52.097Z,10.26
2019-05-12T21:44:24.541Z,10.24
2019-05-12T21:47:03.675Z,10.16
2019-05-12T21:49:30.332Z,10.11
2019-05-12T21:52:04.189Z,10.13
2019-05-12T21:54:39.640Z,10.05
2019-05-12T21:57:10.168Z,10.00
2019-05-12T21:59:42.130Z,10.00
2019-05-12T22:02:14.774Z,9.96
2019-05-12T22:04:48.203Z,9.87
2019-05-12T22:07:20.211Z,9.83
2019-05-12T22:09:53.799Z,9.75
2019-05-12T22:12:28.472Z,9.79
2019-05-12T22:14:59.846Z,9.75
2019-05-12T22:17:51.406Z,9.81
2019-05-12T22:20:23.718Z,9.72
2019-05-12T22:23:00.470Z,9.65
2019-05-12T22:25:30.063Z,9.59
2019-05-12T22:28:05.436Z,9.62
2019-05-12T22:30:35.901Z,9.67
2019-05-12T22:33:10.738Z,9.61
2019-05-12T22:35:44.136Z,9.58
2019-05-12T22:38:20.863Z,9.57
2019-05-12T22:40:56.038Z,9.48
2019-05-12T22:43:23.891Z,9.48
2019-05-12T22:45:55.990Z,9.52
2019-05-12T22:48:29.945Z,9.58
2019-05-12T22:51:06.064Z,9.61
2019-05-12T22:53:35.770Z,9.59
2019-05-12T22:56:12.262Z,9.54
2019-05-12T22:58:44.035Z,9.58
2019-05-12T23:01:15.497Z,9.64
2019-05-12T23:03:51.595Z,9.61
2019-05-12T23:06:25.147Z,9.61
2019-05-12T23:08:55.206Z,9.60
2019-05-12T23:11:32.308Z,9.59
2019-05-12T23:14:01.013Z,9.58
2019-05-12T23:16:33.639Z,9.59
2019-05-12T23:19:10.330Z,9.54
2019-05-12T23:21:39.500Z,9.53
2019-05-12T23:24:11.523Z,9.55
2019-05-12T23:26:47.795Z,9.55
2019-05-12T23:29:20.388Z,9.50
2019-05-12T23:31:53.582Z,9.45
2019-05-12T23:34:25.048Z,9.43
2019-05-12T23:36:59.974Z,9.41
2019-05-12T23:39:32.413Z,9.34
2019-05-12T23:42:04.820Z,9.33
2019-05-12T23:44:36.798Z,9.28
2019-05-12T23:47:08.772Z,9.24
2019-05-12T23:49:40.683Z,9.22
2019-05-12T23:52:14.023Z,9.19
2019-05-12T23:54:46.232Z,9.22
2019-05-12T23:57:18.180Z,9.23
2019-05-12T23:59:50.110Z,9.20
